createdAt,value
2022-12-15T00:01:19.891Z,-1.51
2022-12-15T00:04:41.725Z,-1.51
2022-12-15T00:08:03.373Z,-1.50
2022-12-15T00:11:25.202Z,-1.51
2022-12-15T00:14:46.638Z,-1.50
2022-12-15T00:18:08.512Z,-1.50
2022-12-15T00:21:30.075Z,-1.48
2022-12-15T00:24:51.774Z,-1.51
2022-12-15T00:28:15.725Z,-1.51
2022-12-15T00:31:37.757Z,-1.50
2022-12-15T00:34:59.435Z,-1.51
2022-12-15T00:38:28.917Z,-1.51
2022-12-15T00:41:31.965Z,-1.50
2022-12-15T00:44:35.485Z,-1.52
2022-12-15T00:47:38.710Z,-1.51
2022-12-15T00:50:53.741Z,-1.51
2022-12-15T00:54:18.178Z,-1.50
2022-12-15T00:57:40.586Z,-1.54
2022-12-15T01:01:02.163Z,-1.50
2022-12-15T01:04:24.423Z,-1.50
2022-12-15T01:07:49.803Z,-1.50
2022-12-15T01:11:13.907Z,-1.50
2022-12-15T01:14:35.493Z,-1.50
2022-12-15T01:17:57.794Z,-1.48
2022-12-15T01:21:05.507Z,-1.48
2022-12-15T01:24:08.956Z,-1.47
2022-12-15T01:27:13.198Z,-1.49
2022-12-15T01:30:20.292Z,-1.48
2022-12-15T01:33:24.486Z,-1.47
2022-12-15T01:36:27.849Z,-1.47
2022-12-15T01:39:51.604Z,-1.46
2022-12-15T01:42:55.322Z,-1.47
2022-12-15T01:46:14.400Z,-1.47
2022-12-15T01:49:23.507Z,-1.48
2022-12-15T01:52:26.978Z,-1.49
2022-12-15T01:55:32.494Z,-1.47
2022-12-15T01:58:38.865Z,-1.47
2022-12-15T02:01:42.617Z,-1.51
2022-12-15T02:04:51.700Z,-1.48
2022-12-15T02:07:54.961Z,-1.49
2022-12-15T02:11:11.235Z,-1.49
2022-12-15T02:14:25.964Z,-1.48
2022-12-15T02:17:41.014Z,-1.46
2022-12-15T02:21:07.436Z,-1.46
2022-12-15T02:24:34.685Z,-1.46
2022-12-15T02:28:09.637Z,-1.49
2022-12-15T02:31:49.936Z,-1.46
2022-12-15T02:35:03.183Z,-1.47
2022-12-15T02:38:08.898Z,-1.46
2022-12-15T02:41:38.259Z,-1.47
2022-12-15T02:44:56.396Z,-1.47
2022-12-15T02:48:11.998Z,-1.47
2022-12-15T02:51:44.884Z,-1.47
2022-12-15T02:55:02.729Z,-1.47
2022-12-15T02:58:44.439Z,-1.45
2022-12-15T03:01:58.131Z,-1.45
2022-12-15T03:05:02.073Z,-1.46
2022-12-15T03:08:05.325Z,-1.48
2022-12-15T03:11:08.789Z,-1.46
2022-12-15T03:14:11.858Z,-1.46
2022-12-15T03:17:15.346Z,-1.45
2022-12-15T03:20:18.517Z,-1.47
2022-12-15T03:23:23.198Z,-1.47
2022-12-15T03:26:27.939Z,-1.46
2022-12-15T03:29:31.229Z,-1.47
2022-12-15T03:32:34.409Z,-1.47
2022-12-15T03:35:37.810Z,-1.48
2022-12-15T03:38:42.460Z,-1.49
2022-12-15T03:41:45.860Z,-1.51
2022-12-15T03:44:49.721Z,-1.50
2022-12-15T03:47:54.231Z,-1.50
2022-12-15T03:50:57.318Z,-1.49
2022-12-15T03:54:01.247Z,-1.48
2022-12-15T03:57:04.352Z,-1.48
2022-12-15T04:00:08.225Z,-1.47
2022-12-15T04:03:15.815Z,-1.47
2022-12-15T04:06:19.443Z,-1.46
2022-12-15T04:09:22.761Z,-1.44
2022-12-15T04:12:26.053Z,-1.45
2022-12-15T04:15:29.454Z,-1.44
2022-12-15T04:18:32.892Z,-1.45
2022-12-15T04:21:36.127Z,-1.43
2022-12-15T04:24:58.223Z,-1.43
2022-12-15T04:28:19.933Z,-1.42
2022-12-15T04:32:01.549Z,-1.43
2022-12-15T04:35:23.912Z,-1.42
2022-12-15T04:38:50.395Z,-1.39
2022-12-15T04:42:14.317Z,-1.43
2022-12-15T04:45:39.384Z,-1.45
2022-12-15T04:49:01.255Z,-1.45
2022-12-15T04:52:24.118Z,-1.44
2022-12-15T04:55:46.823Z,-1.44
2022-12-15T04:59:09.009Z,-1.43
2022-12-15T05:02:33.568Z,-1.43
2022-12-15T05:05:55.866Z,-1.43
2022-12-15T05:09:18.015Z,-1.45
2022-12-15T05:12:40.049Z,-1.43
2022-12-15T05:16:01.693Z,-1.43
2022-12-15T05:19:23.980Z,-1.43
2022-12-15T05:22:46.066Z,-1.43
2022-12-15T05:26:08.239Z,-1.42
2022-12-15T05:29:30.135Z,-1.41
2022-12-15T05:32:33.632Z,-1.44
2022-12-15T05:35:36.697Z,-1.44
2022-12-15T05:38:40.278Z,-1.40
2022-12-15T05:41:43.492Z,-1.38
2022-12-15T05:44:47.278Z,-1.40
2022-12-15T05:47:53.700Z,-1.38
2022-12-15T05:50:57.030Z,-1.36
2022-12-15T05:54:00.323Z,-1.36
2022-12-15T05:57:03.843Z,-1.36
2022-12-15T06:00:07.726Z,-1.36
2022-12-15T06:03:14.650Z,-1.35
2022-12-15T06:06:18.131Z,-1.34
2022-12-15T06:09:23.430Z,-1.32
2022-12-15T06:12:26.800Z,-1.32
2022-12-15T06:15:29.888Z,-1.33
2022-12-15T06:18:38.655Z,-1.28
2022-12-15T06:21:41.856Z,-1.28
2022-12-15T06:24:45.315Z,-1.25
2022-12-15T06:27:51.526Z,-1.23
2022-12-15T06:31:02.442Z,-1.23
2022-12-15T06:34:08.425Z,-1.23
2022-12-15T06:37:12.847Z,-1.19
2022-12-15T06:40:16.077Z,-1.20
2022-12-15T06:43:19.441Z,-1.16
2022-12-15T06:46:23.914Z,-1.13
2022-12-15T06:49:27.549Z,-1.10
2022-12-15T06:52:31.109Z,-1.08
2022-12-15T06:55:34.707Z,-1.07
2022-12-15T06:58:37.792Z,-1.07
2022-12-15T07:01:42.196Z,-1.03
2022-12-15T07:04:45.637Z,-1.02
2022-12-15T07:07:49.106Z,-1.01
2022-12-15T07:10:52.464Z,-0.95
2022-12-15T07:13:55.946Z,-0.92
2022-12-15T07:16:59.070Z,-0.87
2022-12-15T07:20:03.120Z,-0.81
2022-12-15T07:23:09.717Z,-0.73
2022-12-15T07:26:13.195Z,-0.68
2022-12-15T07:29:22.680Z,-0.63
2022-12-15T07:32:26.780Z,-0.61
2022-12-15T07:35:30.155Z,-0.56
2022-12-15T07:38:34.078Z,-0.55
2022-12-15T07:41:38.748Z,-0.56
2022-12-15T07:44:42.501Z,-0.56
2022-12-15T07:47:50.338Z,-0.51
2022-12-15T07:51:02.731Z,-0.51
2022-12-15T07:54:14.244Z,-0.48
2022-12-15T07:57:17.930Z,-0.49
2022-12-15T08:00:21.230Z,-0.54
2022-12-15T08:03:24.678Z,-0.56
2022-12-15T08:06:27.814Z,-0.55
2022-12-15T08:09:34.217Z,-0.53
2022-12-15T08:12:37.489Z,-0.44
2022-12-15T08:15:41.743Z,-0.33
2022-12-15T08:18:44.764Z,-0.27
2022-12-15T08:21:48.667Z,-0.17
2022-12-15T08:24:53.061Z,-0.12
2022-12-15T08:27:58.742Z,0.01
2022-12-15T08:31:09.910Z,0.06
2022-12-15T08:34:13.358Z,0.14
2022-12-15T08:37:16.540Z,0.26
2022-12-15T08:40:21.227Z,0.39
2022-12-15T08:43:24.575Z,0.57
2022-12-15T08:46:33.892Z,0.56
2022-12-15T08:49:38.189Z,0.60
2022-12-15T08:53:00.756Z,0.60
2022-12-15T08:56:09.400Z,0.63
2022-12-15T08:59:13.341Z,0.53
2022-12-15T09:02:16.625Z,0.64
2022-12-15T09:05:20.366Z,0.72
2022-12-15T09:08:24.535Z,0.81
2022-12-15T09:11:29.937Z,0.85
2022-12-15T09:14:33.492Z,0.81
2022-12-15T09:17:36.785Z,0.74
2022-12-15T09:20:40.707Z,0.70
2022-12-15T09:23:49.152Z,0.85
2022-12-15T09:26:52.300Z,0.84
2022-12-15T09:29:55.731Z,0.83
2022-12-15T09:32:58.922Z,0.89
2022-12-15T09:36:04.081Z,0.99
2022-12-15T09:39:09.345Z,1.10
2022-12-15T09:42:32.918Z,1.22
2022-12-15T09:45:46.713Z,1.38
2022-12-15T09:48:53.259Z,1.54
2022-12-15T09:52:10.990Z,1.49
2022-12-15T09:55:35.382Z,1.54
2022-12-15T09:58:51.706Z,1.50
2022-12-15T10:02:10.576Z,1.37
2022-12-15T10:09:21.547Z,1.48
2022-12-15T10:12:33.110Z,1.70
2022-12-15T10:15:45.633Z,1.85
2022-12-15T10:19:02.236Z,1.81
2022-12-15T10:22:05.563Z,1.76
2022-12-15T10:25:25.330Z,1.95
2022-12-15T10:29:11.678Z,2.14
2022-12-15T10:32:51.918Z,2.03
2022-12-15T10:35:56.209Z,1.86
2022-12-15T10:38:59.576Z,1.88
2022-12-15T10:42:18.278Z,2.07
2022-12-15T10:45:39.235Z,2.06
2022-12-15T10:48:48.848Z,2.03
2022-12-15T10:52:03.189Z,2.06
2022-12-15T10:55:49.806Z,1.91
2022-12-15T10:58:56.917Z,1.88
2022-12-15T11:02:25.212Z,1.81
2022-12-15T11:05:29.275Z,1.76
2022-12-15T11:08:33.629Z,1.78
2022-12-15T11:12:06.344Z,1.68
2022-12-15T11:15:23.951Z,1.74
2022-12-15T11:18:33.350Z,1.77
2022-12-15T11:21:44.700Z,1.84
2022-12-15T11:24:57.280Z,1.83
2022-12-15T11:28:06.982Z,1.98
2022-12-15T11:31:20.927Z,2.08
2022-12-15T11:34:28.273Z,2.15
2022-12-15T11:37:44.561Z,2.08
2022-12-15T11:40:47.826Z,1.98
2022-12-15T11:44:04.363Z,2.03
2022-12-15T11:47:18.404Z,2.04
2022-12-15T11:50:24.775Z,1.95
2022-12-15T11:53:50.179Z,1.91
2022-12-15T11:57:03.320Z,1.84
2022-12-15T12:00:19.795Z,1.86
2022-12-15T12:03:37.102Z,1.89
2022-12-15T12:06:53.064Z,1.94
2022-12-15T12:10:38.943Z,1.92
2022-12-15T12:14:11.848Z,1.89
2022-12-15T12:17:34.307Z,1.86
2022-12-15T12:20:52.114Z,1.87
2022-12-15T12:24:06.213Z,1.98
2022-12-15T12:27:29.434Z,1.98
2022-12-15T12:30:42.792Z,1.98
2022-12-15T12:33:52.794Z,2.01
2022-12-15T12:37:05.955Z,1.97
2022-12-15T12:40:38.233Z,1.97
2022-12-15T12:43:50.141Z,2.00
2022-12-15T12:46:57.545Z,2.02
2022-12-15T12:50:23.625Z,2.04
2022-12-15T12:53:34.221Z,2.03
2022-12-15T12:56:40.892Z,1.99
2022-12-15T12:59:51.918Z,1.98
2022-12-15T13:02:57.476Z,1.87
2022-12-15T13:06:26.551Z,1.90
2022-12-15T13:10:13.026Z,1.94
2022-12-15T13:13:19.281Z,2.00
2022-12-15T13:16:26.948Z,1.97
2022-12-15T13:19:58.447Z,1.95
2022-12-15T13:23:23.521Z,1.97
2022-12-15T13:26:32.203Z,1.92
2022-12-15T13:30:17.464Z,1.90
2022-12-15T13:33:20.610Z,1.84
2022-12-15T13:36:42.364Z,1.80
2022-12-15T13:39:53.863Z,1.72
2022-12-15T13:43:05.034Z,1.69
2022-12-15T13:46:18.092Z,1.65
2022-12-15T13:49:29.232Z,1.60
2022-12-15T13:53:17.887Z,1.58
2022-12-15T13:56:24.794Z,1.56
2022-12-15T13:59:42.416Z,1.55
2022-12-15T14:02:46.541Z,1.51
2022-12-15T14:05:59.354Z,1.49
2022-12-15T14:09:03.613Z,1.46
2022-12-15T14:12:13.645Z,1.43
2022-12-15T14:15:19.580Z,1.39
2022-12-15T14:18:39.341Z,1.37
2022-12-15T14:21:54.298Z,1.38
2022-12-15T14:25:13.102Z,1.33
2022-12-15T14:28:46.900Z,1.32
2022-12-15T14:31:56.905Z,1.26
2022-12-15T14:35:00.216Z,1.21
2022-12-15T14:38:14.884Z,1.17
2022-12-15T14:41:29.186Z,1.12
2022-12-15T14:44:39.179Z,1.04
2022-12-15T14:48:13.576Z,1.00
2022-12-15T14:51:17.455Z,0.97
2022-12-15T14:54:39.458Z,0.92
2022-12-15T14:57:48.056Z,0.91
2022-12-15T15:00:53.747Z,0.87
2022-12-15T15:03:03.569Z,1.38
2022-12-15T15:04:01.099Z,0.87
2022-12-15T15:07:15.135Z,0.82
2022-12-15T15:10:29.139Z,0.84
2022-12-15T15:13:40.859Z,0.84
2022-12-15T15:16:44.717Z,0.80
2022-12-15T15:19:55.143Z,0.79
2022-12-15T15:23:19.761Z,0.79
2022-12-15T15:26:25.834Z,0.77
2022-12-15T15:29:41.297Z,0.80
2022-12-15T15:32:58.745Z,0.79
2022-12-15T15:36:04.298Z,0.76
2022-12-15T15:39:15.523Z,0.78
2022-12-15T15:42:19.288Z,0.75
2022-12-15T15:45:22.725Z,0.75
2022-12-15T15:48:31.509Z,0.75
2022-12-15T15:51:36.228Z,0.74
2022-12-15T15:54:39.917Z,0.74
2022-12-15T15:57:43.113Z,0.74
2022-12-15T16:00:46.810Z,0.74
2022-12-15T16:03:50.303Z,0.73
2022-12-15T16:06:54.416Z,0.74
2022-12-15T16:09:59.247Z,0.73
2022-12-15T16:13:02.498Z,0.72
2022-12-15T16:16:10.600Z,0.72
2022-12-15T16:19:13.850Z,0.71
2022-12-15T16:22:22.572Z,0.71
2022-12-15T16:25:50.775Z,0.70
2022-12-15T16:28:54.741Z,0.70
2022-12-15T16:31:58.306Z,0.70
2022-12-15T16:35:01.756Z,0.69
2022-12-15T16:38:28.835Z,0.69
2022-12-15T16:41:33.300Z,0.69
2022-12-15T16:44:36.721Z,0.70
2022-12-15T16:47:40.859Z,0.69
2022-12-15T16:50:50.257Z,0.68
2022-12-15T16:53:56.136Z,0.67
2022-12-15T16:57:00.416Z,0.68
2022-12-15T17:00:31.506Z,0.67
2022-12-15T17:03:34.789Z,0.65
2022-12-15T17:06:38.992Z,0.67
2022-12-15T17:09:42.277Z,0.65
2022-12-15T17:12:46.468Z,0.65
2022-12-15T17:15:49.642Z,0.63
2022-12-15T17:18:53.142Z,0.65
2022-12-15T17:21:56.420Z,0.65
2022-12-15T17:25:00.393Z,0.65
2022-12-15T17:28:06.696Z,0.65
2022-12-15T17:31:22.465Z,0.64
2022-12-15T17:34:34.906Z,0.64
2022-12-15T17:37:40.469Z,0.61
2022-12-15T17:40:49.209Z,0.63
2022-12-15T17:44:24.187Z,0.63
2022-12-15T17:47:18.988Z,0.64
2022-12-15T17:50:25.267Z,0.63
2022-12-15T17:53:33.175Z,0.61
2022-12-15T17:56:37.553Z,0.63
2022-12-15T17:59:41.450Z,0.62
2022-12-15T18:02:45.303Z,0.59
2022-12-15T18:05:52.185Z,0.57
2022-12-15T18:08:58.284Z,0.60
2022-12-15T18:12:16.237Z,0.56
2022-12-15T18:15:26.997Z,0.59
2022-12-15T18:18:31.127Z,0.57
2022-12-15T18:21:35.515Z,0.54
2022-12-15T18:24:40.589Z,0.57
2022-12-15T18:27:44.104Z,0.55
2022-12-15T18:30:49.259Z,0.57
2022-12-15T18:34:01.009Z,0.55
2022-12-15T18:37:25.129Z,0.56
2022-12-15T18:40:33.927Z,0.57
2022-12-15T18:43:39.432Z,0.57
2022-12-15T18:46:47.928Z,0.58
2022-12-15T18:49:52.323Z,0.59
2022-12-15T18:53:00.571Z,0.57
2022-12-15T18:56:07.476Z,0.59
2022-12-15T18:59:17.154Z,0.60
2022-12-15T19:02:21.607Z,0.59
2022-12-15T19:05:29.255Z,0.60
2022-12-15T19:08:36.368Z,0.53
2022-12-15T19:11:41.279Z,0.56
2022-12-15T19:14:50.840Z,0.58
2022-12-15T19:18:13.495Z,0.58
2022-12-15T19:21:39.312Z,0.60
2022-12-15T19:24:54.598Z,0.58
2022-12-15T19:28:02.779Z,0.58
2022-12-15T19:31:09.435Z,0.57
2022-12-15T19:34:14.401Z,0.57
2022-12-15T19:37:32.642Z,0.55
2022-12-15T19:40:38.167Z,0.59
2022-12-15T19:43:46.458Z,0.59
2022-12-15T19:46:51.551Z,0.59
2022-12-15T19:49:56.231Z,0.61
2022-12-15T19:53:02.495Z,0.60
2022-12-15T19:56:17.455Z,0.61
2022-12-15T19:59:27.348Z,0.58
2022-12-15T20:02:32.929Z,0.61
2022-12-15T20:05:40.090Z,0.57
2022-12-15T20:08:48.869Z,0.60
2022-12-15T20:11:56.087Z,0.60
2022-12-15T20:15:01.951Z,0.61
2022-12-15T20:18:06.363Z,0.56
2022-12-15T20:21:10.735Z,0.57
2022-12-15T20:24:19.501Z,0.60
2022-12-15T20:27:23.355Z,0.60
2022-12-15T20:30:32.916Z,0.58
2022-12-15T20:33:37.251Z,0.58
2022-12-15T20:36:41.356Z,0.57
2022-12-15T20:39:52.592Z,0.56
2022-12-15T20:43:01.043Z,0.56
2022-12-15T20:46:16.309Z,0.59
2022-12-15T20:49:22.334Z,0.57
2022-12-15T20:52:27.525Z,0.58
2022-12-15T20:55:34.591Z,0.58
2022-12-15T20:58:42.873Z,0.58
2022-12-15T21:01:47.432Z,0.54
2022-12-15T21:04:52.469Z,0.59
2022-12-15T21:07:58.789Z,0.60
2022-12-15T21:11:15.298Z,0.58
2022-12-15T21:14:21.470Z,0.60
2022-12-15T21:17:26.167Z,0.62
2022-12-15T21:20:29.805Z,0.62
2022-12-15T21:23:38.494Z,0.64
2022-12-15T21:26:45.201Z,0.64
2022-12-15T21:29:53.248Z,0.65
2022-12-15T21:32:56.720Z,0.65
2022-12-15T21:36:00.114Z,0.69
2022-12-15T21:39:06.831Z,0.68
2022-12-15T21:42:16.168Z,0.72
2022-12-15T21:45:22.248Z,0.72
2022-12-15T21:48:45.840Z,0.72
2022-12-15T21:51:55.311Z,0.77
2022-12-15T21:54:58.604Z,0.78
2022-12-15T21:58:03.085Z,0.76
2022-12-15T22:01:09.414Z,0.81
2022-12-15T22:04:21.746Z,0.82
2022-12-15T22:07:25.187Z,0.83
2022-12-15T22:10:28.754Z,0.81
2022-12-15T22:13:32.918Z,0.83
2022-12-15T22:16:36.665Z,0.86
2022-12-15T22:19:39.858Z,0.85
2022-12-15T22:22:44.809Z,0.84
2022-12-15T22:25:54.631Z,0.88
2022-12-15T22:29:03.432Z,0.88
2022-12-15T22:32:14.748Z,0.86
2022-12-15T22:35:23.317Z,0.89
2022-12-15T22:38:26.479Z,0.89
2022-12-15T22:41:29.981Z,0.86
2022-12-15T22:44:37.464Z,0.87
2022-12-15T22:47:41.384Z,0.91
2022-12-15T22:50:45.534Z,0.90
2022-12-15T22:53:49.036Z,0.91
2022-12-15T22:56:58.588Z,0.92
2022-12-15T23:00:07.979Z,0.92
2022-12-15T23:03:12.098Z,0.92
2022-12-15T23:06:17.200Z,0.93
2022-12-15T23:09:22.159Z,0.93
2022-12-15T23:12:25.560Z,0.94
2022-12-15T23:15:48.209Z,0.97
2022-12-15T23:18:55.730Z,0.95
2022-12-15T23:21:58.918Z,0.95
2022-12-15T23:25:07.511Z,0.96
2022-12-15T23:28:12.905Z,0.94
2022-12-15T23:31:19.365Z,0.94
2022-12-15T23:34:23.930Z,0.96
2022-12-15T23:37:27.367Z,0.94
2022-12-15T23:40:30.729Z,0.93
2022-12-15T23:43:35.041Z,0.97
2022-12-15T23:46:38.431Z,0.98
2022-12-15T23:49:42.202Z,0.97
2022-12-15T23:52:48.157Z,0.97
2022-12-15T23:55:54.534Z,0.98
2022-12-15T23:58:59.849Z,1.00
